Time;durP1;ratioP1;P1;durP2;ratioP2;P2;SDS_P1;SDS_P2;PMS_P1;PMS_P2;Temp;Humidity;BMP_temperature;BMP_pressure;BME280_temperature;BME280_humidity;BME280_pressure;Samples;Min_cycle;Max_cycle;Signal;HPM_P1;HPM_P2
2023/03/22 00:01:23;;;;;;;10.10;5.20;;;;;;;10.80;59.79;99684.47;4381210;32;20114;-82
2023/03/22 00:03:49;;;;;;;11.68;6.32;;;;;;;10.51;59.77;99683.69;4381033;32;20371;-83
2023/03/22 00:06:15;;;;;;;8.50;5.25;;;;;;;10.47;59.77;99682.09;4381155;32;20094;-83
2023/03/22 00:08:41;;;;;;;12.15;5.85;;;;;;;10.40;59.77;99684.03;4381078;32;20379;-83
2023/03/22 00:11:06;;;;;;;9.85;5.82;;;;;;;10.33;59.77;99681.66;4393779;32;20094;-82
2023/03/22 00:13:32;;;;;;;13.23;6.05;;;;;;;10.31;59.76;99684.31;4407278;32;20172;-83
2023/03/22 00:15:58;;;;;;;12.27;5.72;;;;;;;10.19;59.76;99687.28;4381354;32;20116;-83
2023/03/22 00:18:24;;;;;;;9.60;5.53;;;;;;;10.09;59.75;99685.88;4392018;32;20141;-83
2023/03/22 00:20:54;;;;;;;9.45;5.25;;;;;;;10.11;59.76;99679.72;4380967;32;20123;-83
2023/03/22 00:23:19;;;;;;;12.52;6.57;;;;;;;10.07;59.75;99682.47;4381085;32;20137;-84
2023/03/22 00:25:45;;;;;;;15.60;5.60;;;;;;;9.95;59.75;99680.25;4381333;32;20082;-85
2023/03/22 00:28:11;;;;;;;9.10;5.62;;;;;;;9.78;59.73;99683.34;4381118;32;20109;-85
2023/03/22 00:30:36;;;;;;;9.27;5.85;;;;;;;9.68;59.73;99681.91;4381086;32;20102;-85
2023/03/22 00:33:02;;;;;;;10.20;5.97;;;;;;;9.56;59.71;99680.53;4393500;32;20169;-84
2023/03/22 00:35:27;;;;;;;11.60;6.15;;;;;;;9.58;59.72;99680.47;4381217;32;20140;-85
2023/03/22 00:37:52;;;;;;;8.60;5.20;;;;;;;9.56;59.73;99682.28;4380984;32;20149;-85
2023/03/22 00:40:18;;;;;;;9.68;5.97;;;;;;;9.43;59.71;99680.00;4407632;32;20154;-84
2023/03/22 00:42:43;;;;;;;10.10;5.37;;;;;;;9.31;59.70;99675.19;4393161;32;20130;-84
2023/03/22 00:45:10;;;;;;;10.88;6.05;;;;;;;9.29;59.71;99676.13;4393711;32;20475;-84
2023/03/22 00:47:35;;;;;;;13.60;5.57;;;;;;;9.28;59.71;99675.28;4381436;32;20132;-85
2023/03/22 00:50:01;;;;;;;12.73;6.03;;;;;;;9.17;59.70;99674.69;4393500;32;20113;-86
2023/03/22 00:52:27;;;;;;;9.40;5.22;;;;;;;9.18;59.69;99679.00;4393628;32;20112;-85
2023/03/22 00:54:53;;;;;;;10.85;5.80;;;;;;;9.17;59.69;99680.75;4393788;32;20124;-85
2023/03/22 00:57:18;;;;;;;11.35;5.72;;;;;;;9.03;59.69;99677.69;4393629;32;20157;-85
2023/03/22 00:59:44;;;;;;;11.73;6.28;;;;;;;9.03;59.69;99674.25;4380994;32;20467;-85
2023/03/22 01:02:12;;;;;;;12.35;6.72;;;;;;;9.10;59.69;99675.78;4381219;32;20102;-85
2023/03/22 01:04:45;;;;;;;9.38;6.00;;;;;;;8.95;59.68;99671.81;4382678;32;20079;-85
2023/03/22 01:07:16;;;;;;;11.10;6.12;;;;;;;8.92;59.69;99669.31;4383104;32;20129;-85
2023/03/22 01:09:43;;;;;;;8.30;5.93;;;;;;;8.93;59.68;99668.44;4395398;32;20128;-85
2023/03/22 01:12:08;;;;;;;11.52;6.25;;;;;;;8.84;59.68;99666.09;4382355;32;20112;-85
2023/03/22 01:14:34;;;;;;;12.10;6.50;;;;;;;8.71;59.67;99673.31;4381708;32;20122;-85
2023/03/22 01:16:59;;;;;;;11.32;6.45;;;;;;;8.68;59.67;99664.75;4382281;32;20399;-85
2023/03/22 01:19:26;;;;;;;11.05;6.93;;;;;;;8.77;59.68;99670.59;4394823;32;20430;-85
2023/03/22 01:21:52;;;;;;;18.37;7.85;;;;;;;8.82;59.68;99660.94;4394859;32;20105;-86
2023/03/22 01:24:17;;;;;;;12.05;7.95;;;;;;;8.82;59.68;99667.88;4369713;32;20129;-85
2023/03/22 01:26:42;;;;;;;13.27;7.32;;;;;;;8.85;59.68;99662.59;4382109;32;20400;-85
2023/03/22 01:29:08;;;;;;;13.07;7.10;;;;;;;8.86;59.68;99664.28;4408267;32;20486;-84
2023/03/22 01:31:33;;;;;;;12.18;7.15;;;;;;;8.83;59.68;99657.44;4394410;32;20487;-84
2023/03/22 01:33:59;;;;;;;12.00;6.60;;;;;;;8.91;59.68;99657.22;4394676;32;20130;-83
2023/03/22 01:36:24;;;;;;;16.27;8.15;;;;;;;8.85;59.68;99658.25;4408350;32;20417;-83
2023/03/22 01:38:50;;;;;;;13.52;7.95;;;;;;;8.81;59.67;99651.44;4408360;32;20101;-83
2023/03/22 01:41:15;;;;;;;12.63;7.62;;;;;;;8.72;59.67;99658.59;4381706;32;20480;-83
2023/03/22 01:43:41;;;;;;;13.62;8.52;;;;;;;8.70;59.67;99663.84;4381899;32;20104;-85
2023/03/22 01:46:06;;;;;;;15.65;8.77;;;;;;;8.70;59.67;99656.03;4394453;32;20102;-84
2023/03/22 01:48:34;;;;;;;13.13;8.45;;;;;;;8.65;59.66;99663.09;4381864;32;20153;-84
2023/03/22 01:51:04;;;;;;;12.48;8.00;;;;;;;8.62;59.67;99668.38;4381803;32;20136;-83
2023/03/22 01:53:32;;;;;;;15.20;8.07;;;;;;;8.87;59.68;99660.81;4394507;32;20470;-84
2023/03/22 01:55:57;;;;;;;16.25;8.48;;;;;;;8.66;59.68;99659.63;4393765;32;20137;-83
2023/03/22 01:58:23;;;;;;;13.20;7.93;;;;;;;8.51;59.66;99666.03;4381704;32;20414;-84
2023/03/22 02:00:48;;;;;;;16.35;7.78;;;;;;;8.41;59.65;99667.16;4381463;32;20147;-85
2023/03/22 02:03:15;;;;;;;16.27;7.62;;;;;;;8.26;59.64;99670.94;4381619;32;20158;-85
2023/03/22 02:05:40;;;;;;;16.83;8.95;;;;;;;8.08;59.64;99673.97;4394271;32;20106;-85
2023/03/22 02:08:07;;;;;;;17.08;9.48;;;;;;;8.06;59.63;99673.16;4394123;32;20132;-86
2023/03/22 02:10:33;;;;;;;15.45;8.40;;;;;;;8.00;59.64;99679.31;4394092;32;20488;-86
2023/03/22 02:13:06;;;;;;;14.23;7.75;;;;;;;7.92;59.63;99678.66;4393967;32;20111;-86
2023/03/22 02:15:37;;;;;;;16.15;8.10;;;;;;;7.89;59.62;99676.13;4394565;32;20141;-86
2023/03/22 02:18:20;;;;;;;15.07;8.18;;;;;;;7.84;59.62;99682.31;4393880;32;20097;-86
2023/03/22 02:21:05;;;;;;;11.90;7.87;;;;;;;7.85;59.62;99681.44;4407668;32;20494;-86
2023/03/22 02:23:49;;;;;;;14.57;7.53;;;;;;;7.84;59.63;99690.09;4394007;32;20086;-84
2023/03/22 02:26:29;;;;;;;13.70;7.12;;;;;;;7.73;59.61;99684.28;4393805;32;20110;-85
2023/03/22 02:28:57;;;;;;;11.48;7.10;;;;;;;7.65;59.61;99690.47;4393930;32;20403;-85
2023/03/22 02:31:35;;;;;;;11.38;7.40;;;;;;;7.58;59.60;99688.91;4393804;32;20091;-84
2023/03/22 02:34:29;;;;;;;17.37;8.48;;;;;;;7.60;59.60;99691.47;4393854;32;20117;-84
2023/03/22 02:37:04;;;;;;;12.55;7.03;;;;;;;7.43;59.60;99685.78;4393881;32;20149;-84
2023/03/22 02:40:02;;;;;;;11.82;6.97;;;;;;;7.43;59.60;99685.78;4393682;32;20114;-83
2023/03/22 02:42:39;;;;;;;17.85;8.23;;;;;;;7.64;59.61;99688.78;4383887;32;20086;-83
2023/03/22 02:45:16;;;;;;;14.60;8.60;;;;;;;7.55;59.61;99688.94;4409679;32;20451;-83
2023/03/22 02:48:06;;;;;;;16.75;9.25;;;;;;;7.46;59.59;99690.88;4395769;32;20105;-82
2023/03/22 02:50:51;;;;;;;14.68;7.65;;;;;;;7.44;59.60;99693.50;4395658;32;20122;-83
2023/03/22 02:53:23;;;;;;;13.15;7.00;;;;;;;7.56;59.61;99687.19;4396002;32;20094;-84
2023/03/22 02:55:54;;;;;;;15.70;8.45;;;;;;;7.53;59.60;99684.69;4383649;32;20122;-83
2023/03/22 02:58:22;;;;;;;13.60;8.20;;;;;;;7.59;59.60;99680.25;4383080;32;20106;-83
2023/03/22 03:00:49;;;;;;;14.75;8.52;;;;;;;7.82;59.62;99676.31;4383191;32;20106;-82
2023/03/22 03:03:17;;;;;;;15.05;8.93;;;;;;;7.96;59.62;99672.50;4383310;32;20116;-82
2023/03/22 03:05:44;;;;;;;13.82;8.35;;;;;;;8.01;59.63;99675.84;4383768;32;20097;-83
2023/03/22 03:08:10;;;;;;;16.95;8.98;;;;;;;8.21;59.64;99677.12;4383293;32;20106;-83
2023/03/22 03:10:36;;;;;;;16.85;9.73;;;;;;;8.17;59.64;99676.34;4383118;32;20459;-82
2023/03/22 03:13:02;;;;;;;19.08;9.23;;;;;;;8.08;59.64;99679.16;4395705;32;20093;-82
2023/03/22 03:15:27;;;;;;;21.20;9.25;;;;;;;8.16;59.64;99673.78;4395612;32;20157;-82
2023/03/22 03:17:55;;;;;;;16.80;9.52;;;;;;;8.31;59.65;99676.88;4382538;32;20188;-83
2023/03/22 03:20:48;;;;;;;15.70;8.98;;;;;;;8.37;59.64;99669.88;4394320;32;20119;-84
2023/03/22 03:23:23;;;;;;;18.17;8.82;;;;;;;8.48;59.66;99670.44;4383527;32;20099;-83
2023/03/22 03:26:19;;;;;;;17.15;9.30;;;;;;;8.80;59.67;99683.47;4409423;32;20093;-82
2023/03/22 03:28:49;;;;;;;16.12;8.48;;;;;;;8.65;59.66;99694.25;4395474;32;20136;-82
2023/03/22 03:31:32;;;;;;;18.33;8.23;;;;;;;8.49;59.65;99703.28;4395866;32;20623;-83
2023/03/22 03:34:20;;;;;;;14.23;8.02;;;;;;;8.18;59.64;99703.97;4395062;32;20373;-83
2023/03/22 03:36:50;;;;;;;14.63;9.57;;;;;;;8.17;59.64;99702.28;4395594;32;20094;-83
2023/03/22 03:39:15;;;;;;;15.65;7.93;;;;;;;8.18;59.63;99709.16;4370495;32;20132;-83
2023/03/22 03:41:41;;;;;;;14.57;8.93;;;;;;;8.23;59.64;99703.87;4382922;32;20106;-83
2023/03/22 03:44:07;;;;;;;15.13;8.55;;;;;;;8.32;59.65;99701.94;4395540;32;20086;-83
2023/03/22 03:46:34;;;;;;;15.40;9.23;;;;;;;8.45;59.66;99702.50;4395123;32;20090;-82
2023/03/22 03:48:59;;;;;;;15.15;9.35;;;;;;;8.38;59.66;99698.38;4370308;32;20102;-83
2023/03/22 03:51:25;;;;;;;13.77;9.00;;;;;;;8.49;59.65;99708.47;4382315;32;20573;-83
2023/03/22 03:53:51;;;;;;;17.98;8.25;;;;;;;8.46;59.66;99711.13;4382748;32;20083;-83
2023/03/22 03:56:16;;;;;;;16.73;9.07;;;;;;;8.58;59.66;99701.34;4394913;32;20414;-82
2023/03/22 03:58:42;;;;;;;19.02;9.93;;;;;;;8.78;59.67;99700.00;4395204;32;20363;-82
2023/03/22 04:01:07;;;;;;;18.40;10.15;;;;;;;8.80;59.67;99696.47;4382634;32;20514;-82
2023/03/22 04:03:32;;;;;;;18.15;8.95;;;;;;;8.76;59.67;99692.25;4382776;32;20490;-83
2023/03/22 04:05:58;;;;;;;16.87;8.00;;;;;;;8.81;59.67;99694.72;4382674;32;20107;-84
2023/03/22 04:08:24;;;;;;;21.77;8.57;;;;;;;8.75;59.68;99700.03;4382767;32;20114;-84
2023/03/22 04:10:50;;;;;;;16.08;8.32;;;;;;;8.65;59.66;99701.19;4382901;32;20478;-84
2023/03/22 04:13:16;;;;;;;13.10;7.93;;;;;;;8.62;59.66;99702.09;4382880;32;20090;-83
2023/03/22 04:15:42;;;;;;;14.23;8.85;;;;;;;8.58;59.66;99698.75;4382966;32;20132;-84
2023/03/22 04:18:08;;;;;;;16.75;8.70;;;;;;;8.73;59.67;99702.69;4395406;32;20149;-84
2023/03/22 04:20:34;;;;;;;13.55;7.55;;;;;;;8.96;59.69;99704.69;4383179;32;20128;-83
2023/03/22 04:22:59;;;;;;;20.83;8.73;;;;;;;8.66;59.66;99700.28;4382815;32;20105;-83
2023/03/22 04:25:29;;;;;;;15.85;9.25;;;;;;;8.63;59.66;99690.84;4408820;32;20789;-83
2023/03/22 04:27:54;;;;;;;14.43;8.77;;;;;;;8.56;59.66;99690.16;4395644;32;20122;-83
2023/03/22 04:30:21;;;;;;;15.50;9.00;;;;;;;8.78;59.67;99707.78;4382713;32;20105;-83
2023/03/22 04:32:47;;;;;;;13.40;8.95;;;;;;;8.70;59.67;99713.13;4395465;32;20173;-83
2023/03/22 04:35:13;;;;;;;14.20;7.85;;;;;;;8.72;59.67;99706.16;4382691;32;20082;-82
2023/03/22 04:37:38;;;;;;;14.05;7.65;;;;;;;8.85;59.68;99702.38;4382637;32;20155;-83
2023/03/22 04:40:06;;;;;;;14.07;8.40;;;;;;;8.75;59.68;99697.44;4408893;32;20114;-83
2023/03/22 04:42:32;;;;;;;13.82;8.43;;;;;;;8.73;59.66;99697.50;4382573;32;20120;-82
2023/03/22 04:44:57;;;;;;;18.62;9.20;;;;;;;8.58;59.66;99700.47;4395089;32;20117;-83
2023/03/22 04:47:23;;;;;;;17.20;8.43;;;;;;;8.56;59.66;99707.47;4408420;32;25156;-84
2023/03/22 04:49:48;;;;;;;15.55;9.35;;;;;;;8.41;59.65;99715.59;4381868;32;22238;-84
2023/03/22 04:52:13;;;;;;;16.00;8.45;;;;;;;8.46;59.66;99713.75;4369248;32;20788;-83
2023/03/22 04:54:39;;;;;;;18.42;8.68;;;;;;;8.69;59.67;99710.59;4394442;32;26226;-84
2023/03/22 04:57:05;;;;;;;15.90;9.30;;;;;;;8.63;59.67;99719.37;4395036;32;20178;-84
2023/03/22 04:59:30;;;;;;;16.58;8.52;;;;;;;8.54;59.66;99717.03;4369807;32;20375;-84
2023/03/22 05:01:55;;;;;;;16.35;9.05;;;;;;;8.60;59.66;99715.12;4381825;32;20477;-83
2023/03/22 05:04:21;;;;;;;14.73;9.18;;;;;;;8.54;59.66;99715.28;4393710;32;24573;-84
2023/03/22 05:06:46;;;;;;;16.90;8.75;;;;;;;8.69;59.67;99716.63;4382373;32;20118;-84
2023/03/22 05:09:12;;;;;;;15.35;8.07;;;;;;;8.71;59.67;99722.62;4382573;32;20129;-84
2023/03/22 05:11:39;;;;;;;16.05;8.57;;;;;;;8.80;59.67;99717.22;4394867;32;20461;-84
2023/03/22 05:14:05;;;;;;;18.70;9.55;;;;;;;8.68;59.67;99719.25;4382397;32;20374;-84
2023/03/22 05:16:30;;;;;;;13.07;8.18;;;;;;;8.73;59.66;99718.25;4394637;32;20169;-85
2023/03/22 05:18:55;;;;;;;14.38;8.13;;;;;;;8.90;59.68;99726.47;4381993;32;20479;-84
2023/03/22 05:21:27;;;;;;;15.85;8.00;;;;;;;9.14;59.70;99718.94;4381865;32;20530;-85
2023/03/22 05:23:53;;;;;;;13.77;8.63;;;;;;;9.21;59.70;99713.53;4383138;32;20159;-84
2023/03/22 05:26:19;;;;;;;15.38;8.40;;;;;;;9.28;59.70;99716.84;4382065;32;20411;-84
2023/03/22 05:28:44;;;;;;;15.77;8.88;;;;;;;9.46;59.71;99718.94;4394715;32;20102;-84
2023/03/22 05:31:14;;;;;;;15.50;9.02;;;;;;;9.47;59.71;99733.63;4381913;32;20372;-85
2023/03/22 05:33:40;;;;;;;15.65;9.30;;;;;;;9.86;59.73;99735.97;4382880;32;20070;-81
2023/03/22 05:36:06;;;;;;;15.18;8.27;;;;;;;9.84;59.73;99724.75;4394444;32;20127;-82
2023/03/22 05:38:32;;;;;;;15.43;8.70;;;;;;;9.81;59.73;99720.50;4394571;32;20151;-83
2023/03/22 05:40:57;;;;;;;14.05;8.05;;;;;;;9.78;59.72;99717.16;4394364;32;20137;-82
2023/03/22 05:43:22;;;;;;;17.15;8.63;;;;;;;9.98;59.74;99713.97;4393799;32;24092;-82
2023/03/22 05:45:48;;;;;;;14.25;8.27;;;;;;;10.24;59.75;99715.78;4393813;32;21170;-82
2023/03/22 05:48:14;;;;;;;15.02;8.00;;;;;;;10.28;59.75;99715.66;4394024;32;20481;-82
2023/03/22 05:50:39;;;;;;;14.68;8.02;;;;;;;10.53;59.77;99723.53;4381491;32;20098;-82
2023/03/22 05:53:05;;;;;;;14.87;7.90;;;;;;;10.70;59.78;99721.22;4394152;32;20177;-82
2023/03/22 05:55:31;;;;;;;14.80;8.80;;;;;;;10.81;59.78;99728.66;4394077;32;20352;-82
2023/03/22 05:57:57;;;;;;;13.52;7.90;;;;;;;10.96;59.79;99729.91;4381851;32;20132;-83
2023/03/22 06:00:23;;;;;;;17.12;7.60;;;;;;;11.10;59.80;99722.47;4408124;32;20500;-82
2023/03/22 06:02:48;;;;;;;16.25;9.13;;;;;;;11.34;59.81;99723.38;4394254;32;20086;-83
2023/03/22 06:05:15;;;;;;;11.43;6.95;;;;;;;11.35;59.81;99731.12;4381445;32;20168;-82
2023/03/22 06:07:40;;;;;;;19.80;9.38;;;;;;;11.46;59.82;99733.38;4381769;32;20156;-82
2023/03/22 06:10:07;;;;;;;15.10;8.32;;;;;;;11.40;59.82;99744.03;4380822;32;23265;-82
2023/03/22 06:12:33;;;;;;;17.70;8.73;;;;;;;11.69;59.83;99740.34;4407840;32;20113;-82
2023/03/22 06:14:58;;;;;;;13.32;8.77;;;;;;;11.85;59.84;99731.09;4393938;32;20102;-82
2023/03/22 06:17:24;;;;;;;13.70;7.43;;;;;;;11.94;59.84;99733.34;4382405;32;20161;-83
2023/03/22 06:19:50;;;;;;;20.25;9.25;;;;;;;12.02;59.85;99740.03;4409627;32;20128;-82
2023/03/22 06:22:15;;;;;;;13.18;7.87;;;;;;;12.06;59.85;99739.84;4409531;32;20371;-82
2023/03/22 06:24:41;;;;;;;10.60;6.97;;;;;;;12.43;59.88;99734.06;4395897;32;20367;-82
2023/03/22 06:27:07;;;;;;;14.50;8.27;;;;;;;12.78;59.89;99747.47;4395809;32;20122;-83
2023/03/22 06:29:32;;;;;;;15.27;7.95;;;;;;;12.79;59.89;99741.34;4383179;32;20434;-83
2023/03/22 06:31:58;;;;;;;14.87;7.90;;;;;;;12.65;59.88;99743.66;4395901;32;20471;-82
2023/03/22 06:34:25;;;;;;;14.15;7.65;;;;;;;12.75;59.89;99751.03;4395736;32;20118;-83
2023/03/22 06:36:50;;;;;;;13.10;8.00;;;;;;;12.98;59.90;99741.41;4395831;32;20151;-83
2023/03/22 06:39:16;;;;;;;14.00;7.80;;;;;;;13.25;59.92;99735.06;4383053;32;20450;-83
2023/03/22 06:41:41;;;;;;;12.80;7.35;;;;;;;13.07;59.91;99734.03;4383054;32;20157;-83
2023/03/22 06:44:07;;;;;;;13.70;7.62;;;;;;;13.14;59.91;99745.06;4395803;32;20141;-82
2023/03/22 06:46:32;;;;;;;12.15;7.62;;;;;;;13.43;59.92;99743.84;4409010;32;21483;-81
2023/03/22 06:48:57;;;;;;;18.60;7.90;;;;;;;13.60;59.93;99750.94;4409225;32;20137;-82
2023/03/22 06:51:23;;;;;;;17.30;9.88;;;;;;;13.72;59.95;99730.34;4395210;32;20704;-81
2023/03/22 06:53:48;;;;;;;18.00;8.77;;;;;;;13.81;59.95;99731.69;4409437;32;20502;-81
2023/03/22 06:56:14;;;;;;;12.65;7.93;;;;;;;14.14;59.97;99722.25;4409530;32;20142;-82
2023/03/22 06:58:39;;;;;;;14.30;8.88;;;;;;;14.09;59.96;99728.63;4409567;32;20250;-82
2023/03/22 07:01:05;;;;;;;16.98;8.80;;;;;;;14.27;59.98;99738.25;4409507;32;20118;-82
2023/03/22 07:03:30;;;;;;;13.38;8.35;;;;;;;14.65;60.00;99743.44;4395557;32;20102;-82
2023/03/22 07:06:02;;;;;;;14.48;7.93;;;;;;;14.81;60.00;99749.63;4394728;32;20101;-81
2023/03/22 07:08:27;;;;;;;15.20;8.40;;;;;;;14.74;60.00;99748.25;4382696;32;20116;-82
2023/03/22 07:10:52;;;;;;;14.55;8.57;;;;;;;14.80;60.01;99745.31;4395276;32;21294;-81
2023/03/22 07:13:18;;;;;;;14.32;8.23;;;;;;;14.99;60.01;99753.97;4394162;32;20550;-81
2023/03/22 07:15:43;;;;;;;18.45;8.23;;;;;;;15.04;60.02;99749.34;4394939;32;26355;-82
2023/03/22 07:18:09;;;;;;;11.65;7.65;;;;;;;15.03;60.02;99738.94;4394640;32;20133;-82
2023/03/22 07:20:37;;;;;;;14.65;7.30;;;;;;;15.04;60.02;99740.63;4408859;32;20358;-82
2023/03/22 07:23:03;;;;;;;15.85;8.85;;;;;;;15.31;60.04;99743.63;4383054;32;20187;-82
2023/03/22 07:25:28;;;;;;;16.95;8.10;;;;;;;15.39;60.03;99744.09;4394978;32;20447;-82
2023/03/22 07:27:53;;;;;;;14.68;8.43;;;;;;;15.54;60.04;99750.28;4394925;32;20573;-82
2023/03/22 07:30:19;;;;;;;19.92;8.60;;;;;;;15.58;60.04;99757.94;4394792;32;20136;-81
2023/03/22 07:32:44;;;;;;;13.60;7.12;;;;;;;15.71;60.05;99742.41;4408957;32;20121;-82
2023/03/22 07:35:10;;;;;;;12.00;7.25;;;;;;;15.70;60.06;99745.97;4381973;32;20109;-82
2023/03/22 07:37:35;;;;;;;14.02;7.82;;;;;;;15.91;60.06;99744.84;4382397;32;20097;-82
2023/03/22 07:40:02;;;;;;;12.05;7.90;;;;;;;15.91;60.06;99755.34;4382556;32;20181;-82
2023/03/22 07:42:29;;;;;;;12.82;7.50;;;;;;;16.02;60.07;99757.37;4394906;32;20157;-82
2023/03/22 07:44:55;;;;;;;13.95;7.68;;;;;;;16.23;60.08;99757.97;4409204;32;20117;-82
2023/03/22 07:47:20;;;;;;;13.57;7.82;;;;;;;16.33;60.08;99738.16;4409329;32;20414;-82
2023/03/22 07:49:46;;;;;;;11.55;7.35;;;;;;;16.51;60.09;99738.88;4382622;32;20141;-82
2023/03/22 07:52:11;;;;;;;10.73;6.70;;;;;;;16.53;60.09;99739.66;4395334;32;20197;-82
2023/03/22 07:54:37;;;;;;;12.48;7.03;;;;;;;16.68;60.10;99746.69;4394709;32;20125;-83
2023/03/22 07:57:03;;;;;;;10.10;6.45;;;;;;;16.68;60.10;99746.69;4409373;32;20085;-83
2023/03/22 07:59:28;;;;;;;10.20;6.47;;;;;;;16.76;60.12;99739.22;4382801;32;20493;-82
2023/03/22 08:01:54;;;;;;;9.00;5.70;;;;;;;16.90;60.11;99732.31;4395312;32;20169;-82
2023/03/22 08:04:21;;;;;;;9.95;6.03;;;;;;;16.96;60.12;99726.69;4394931;32;21265;-82
2023/03/22 08:06:47;;;;;;;10.60;6.15;;;;;;;17.18;60.13;99719.25;4383079;32;20090;-82
2023/03/22 08:09:13;;;;;;;13.10;6.93;;;;;;;17.16;60.13;99723.75;4395199;32;20450;-82
2023/03/22 08:11:38;;;;;;;14.25;6.87;;;;;;;17.35;60.14;99726.97;4409154;32;20112;-82
2023/03/22 08:14:04;;;;;;;12.93;7.45;;;;;;;17.35;60.14;99728.75;4382363;32;20155;-82
2023/03/22 08:16:29;;;;;;;9.48;6.35;;;;;;;17.46;60.14;99731.56;4382699;32;20392;-82
2023/03/22 08:18:55;;;;;;;14.35;6.43;;;;;;;17.62;60.16;99734.13;4395278;32;20126;-82
2023/03/22 08:21:20;;;;;;;13.32;7.60;;;;;;;17.65;60.15;99739.22;4395076;32;20146;-82
2023/03/22 08:23:46;;;;;;;11.57;7.05;;;;;;;17.75;60.16;99740.38;4408625;32;21778;-82
2023/03/22 08:26:11;;;;;;;15.07;7.50;;;;;;;17.81;60.17;99741.78;4382635;32;20153;-82
2023/03/22 08:28:37;;;;;;;13.13;7.68;;;;;;;17.55;60.15;99736.31;4395208;32;20126;-82
2023/03/22 08:31:09;;;;;;;12.75;6.68;;;;;;;17.68;60.15;99741.69;4394981;32;20170;-82
2023/03/22 08:33:34;;;;;;;15.48;7.90;;;;;;;17.44;60.14;99741.34;4395268;32;20102;-82
2023/03/22 08:36:06;;;;;;;11.52;7.35;;;;;;;17.56;60.15;99740.63;4394519;32;20417;-82
2023/03/22 08:38:32;;;;;;;13.80;7.37;;;;;;;17.69;60.15;99746.00;4382673;32;20463;-82
2023/03/22 08:40:57;;;;;;;13.77;7.57;;;;;;;17.46;60.15;99756.09;4394134;32;20124;-82
2023/03/22 08:43:22;;;;;;;12.37;7.10;;;;;;;17.44;60.13;99749.25;4394736;32;21027;-82
2023/03/22 08:45:48;;;;;;;15.85;7.93;;;;;;;17.73;60.16;99755.41;4394726;32;20133;-82
2023/03/22 08:48:13;;;;;;;11.82;7.28;;;;;;;17.78;60.17;99753.34;4382512;32;20481;-82
2023/03/22 08:50:39;;;;;;;10.98;6.75;;;;;;;17.82;60.16;99749.59;4382051;32;20376;-81
2023/03/22 08:53:04;;;;;;;10.27;7.00;;;;;;;18.11;60.18;99750.41;4382578;32;20146;-82
2023/03/22 08:55:30;;;;;;;9.90;7.03;;;;;;;18.17;60.19;99752.62;4394793;32;20116;-82
2023/03/22 08:57:57;;;;;;;12.07;7.50;;;;;;;18.28;60.19;99738.81;4382491;32;20090;-82
2023/03/22 09:00:23;;;;;;;9.25;6.70;;;;;;;18.48;60.20;99732.25;4395016;32;20565;-82
2023/03/22 09:02:49;;;;;;;11.90;6.35;;;;;;;18.51;60.20;99743.44;4395133;32;20093;-82
2023/03/22 09:05:14;;;;;;;11.07;6.22;;;;;;;18.66;60.21;99742.47;4394994;32;20111;-82
2023/03/22 09:07:40;;;;;;;16.92;7.55;;;;;;;18.70;60.21;99737.84;4408317;32;20090;-82
2023/03/22 09:10:06;;;;;;;11.77;6.45;;;;;;;18.78;60.22;99743.47;4382559;32;20106;-82
2023/03/22 09:12:32;;;;;;;15.98;7.40;;;;;;;18.77;60.21;99748.84;4408839;32;20157;-83
2023/03/22 09:14:57;;;;;;;12.55;7.50;;;;;;;18.89;60.22;99743.59;4394823;32;20147;-82
2023/03/22 09:17:24;;;;;;;13.30;7.75;;;;;;;18.92;60.22;99745.16;4408026;32;22135;-82
2023/03/22 09:19:50;;;;;;;11.70;7.70;;;;;;;18.80;60.21;99746.00;4394735;32;20102;-82
2023/03/22 09:22:15;;;;;;;13.82;7.90;;;;;;;18.83;60.22;99746.62;4382097;32;20128;-82
2023/03/22 09:24:41;;;;;;;15.15;7.30;;;;;;;18.75;60.21;99745.47;4394800;32;20160;-82
2023/03/22 09:27:06;;;;;;;13.95;7.70;;;;;;;18.88;60.23;99741.03;4382106;32;20104;-82
2023/03/22 09:29:32;;;;;;;12.00;6.95;;;;;;;19.02;60.24;99739.19;4382196;32;20150;-82
2023/03/22 09:31:57;;;;;;;15.38;7.40;;;;;;;19.01;60.24;99740.13;4381875;32;20487;-82
2023/03/22 09:34:22;;;;;;;8.90;6.30;;;;;;;19.02;60.23;99733.06;4394638;32;20143;-82
2023/03/22 09:36:48;;;;;;;12.18;6.90;;;;;;;19.05;60.23;99727.59;4394212;32;21526;-82
2023/03/22 09:39:15;;;;;;;12.15;7.18;;;;;;;18.93;60.23;99734.53;4369469;32;20146;-82
2023/03/22 09:42:00;;;;;;;12.60;6.85;;;;;;;19.08;60.24;99732.66;4382276;32;20105;-82
2023/03/22 09:44:33;;;;;;;13.68;8.60;;;;;;;19.11;60.24;99735.06;4382059;32;20118;-82
2023/03/22 09:46:59;;;;;;;12.95;7.68;;;;;;;19.04;60.23;99732.97;4382835;32;20181;-82
2023/03/22 09:49:27;;;;;;;13.88;7.32;;;;;;;19.02;60.24;99728.63;4379162;32;87390;-82
2023/03/22 09:51:53;;;;;;;15.38;7.97;;;;;;;19.12;60.24;99736.75;4394487;32;20109;-82
2023/03/22 09:54:32;;;;;;;15.63;8.05;;;;;;;19.06;60.23;99731.91;4394152;32;20122;-82
2023/03/22 09:57:04;;;;;;;17.02;8.45;;;;;;;19.14;60.24;99734.03;4383223;32;20419;-82
2023/03/22 09:59:38;;;;;;;16.60;8.68;;;;;;;19.22;60.24;99734.37;4381877;32;20443;-81
2023/03/22 10:02:14;;;;;;;17.80;9.07;;;;;;;19.09;60.24;99736.97;4382790;32;20121;-81
2023/03/22 10:04:47;;;;;;;19.55;9.77;;;;;;;19.00;60.23;99735.81;4382599;32;20106;-81
2023/03/22 10:07:37;;;;;;;14.75;8.52;;;;;;;18.91;60.22;99732.94;4394214;32;20473;-82
2023/03/22 10:10:19;;;;;;;16.00;8.70;;;;;;;18.83;60.22;99729.97;4394036;32;20110;-82
2023/03/22 10:13:05;;;;;;;14.13;9.18;;;;;;;18.85;60.23;99728.91;4382113;32;20213;-82
2023/03/22 10:15:38;;;;;;;13.95;8.43;;;;;;;18.70;60.22;99733.44;4407943;32;20170;-82
2023/03/22 10:18:05;;;;;;;11.65;8.05;;;;;;;18.65;60.21;99734.66;4381670;32;20090;-82
2023/03/22 10:20:57;;;;;;;11.32;7.32;;;;;;;18.51;60.21;99735.53;4381825;32;20114;-82
2023/03/22 10:23:33;;;;;;;14.45;7.43;;;;;;;18.67;60.21;99730.97;4407910;32;20102;-82
2023/03/22 10:25:59;;;;;;;13.20;7.25;;;;;;;18.61;60.21;99731.34;4394455;32;20250;-82
2023/03/22 10:28:37;;;;;;;13.85;7.90;;;;;;;18.74;60.22;99731.44;4381517;32;20093;-82
2023/03/22 10:31:03;;;;;;;14.70;8.18;;;;;;;18.93;60.23;99723.16;4381381;32;20110;-82
2023/03/22 10:33:49;;;;;;;15.52;8.88;;;;;;;18.86;60.23;99721.84;4381441;32;20328;-82
2023/03/22 10:36:15;;;;;;;15.05;8.90;;;;;;;18.77;60.23;99717.19;4394776;32;20157;-82
2023/03/22 10:39:03;;;;;;;17.73;10.57;;;;;;;19.02;60.24;99723.38;4368805;32;20109;-82
2023/03/22 10:41:28;;;;;;;17.87;9.43;;;;;;;18.98;60.22;99724.53;4383908;32;20128;-82
2023/03/22 10:43:55;;;;;;;12.32;7.82;;;;;;;19.06;60.23;99721.34;4380824;32;20138;-82
2023/03/22 10:46:23;;;;;;;15.32;7.97;;;;;;;19.10;60.24;99719.34;4381259;32;20454;-82
2023/03/22 10:48:49;;;;;;;14.80;8.52;;;;;;;19.21;60.24;99722.97;4393712;32;20089;-82
2023/03/22 10:51:39;;;;;;;13.38;7.90;;;;;;;19.38;60.26;99716.50;4380928;32;20114;-82
2023/03/22 10:54:04;;;;;;;20.37;10.20;;;;;;;19.45;60.25;99717.81;4395390;32;20114;-82
2023/03/22 10:56:30;;;;;;;16.60;8.80;;;;;;;19.55;60.26;99715.38;4381122;32;20144;-82
2023/03/22 10:58:56;;;;;;;15.82;8.85;;;;;;;19.67;60.27;99721.63;4393430;32;20109;-82
2023/03/22 11:01:32;;;;;;;15.00;9.38;;;;;;;19.66;60.27;99715.50;4393511;32;20404;-83
2023/03/22 11:03:59;;;;;;;12.93;8.95;;;;;;;19.67;60.27;99706.63;4382781;32;20509;-83
2023/03/22 11:06:33;;;;;;;15.60;9.38;;;;;;;19.60;60.26;99718.56;4395908;32;20105;-83
2023/03/22 11:09:00;;;;;;;14.27;8.68;;;;;;;19.50;60.26;99709.56;4396483;32;20108;-83
2023/03/22 11:11:31;;;;;;;17.73;9.27;;;;;;;19.65;60.27;99708.53;4383390;32;20160;-83
2023/03/22 11:14:15;;;;;;;14.75;9.57;;;;;;;19.50;60.26;99701.63;4383682;32;20153;-83
2023/03/22 11:17:00;;;;;;;13.02;8.85;;;;;;;19.67;60.27;99698.72;4395730;32;20094;-83
2023/03/22 11:19:27;;;;;;;13.57;8.20;;;;;;;19.88;60.28;99694.56;4383346;32;20472;-83
2023/03/22 11:21:56;;;;;;;13.93;9.35;;;;;;;19.98;60.29;99692.09;4395457;32;20101;-83
2023/03/22 11:24:24;;;;;;;13.15;8.38;;;;;;;20.02;60.29;99684.78;4383188;32;20136;-83
2023/03/22 11:27:06;;;;;;;12.95;8.65;;;;;;;20.00;60.29;99676.97;4383163;32;20097;-83
2023/03/22 11:30:18;;;;;;;15.05;9.23;;;;;;;20.19;60.29;99673.84;4395695;32;20112;-83
2023/03/22 11:32:44;;;;;;;14.52;9.43;;;;;;;20.28;60.30;99677.59;4395557;32;20118;-83
2023/03/22 11:35:15;;;;;;;13.85;9.02;;;;;;;20.38;60.30;99673.34;4395113;32;22623;-83